SBSPSBVT

Guest
Details From SBSP - Sao Paulo Congonhas
To SBVT - Goiabeiras
Flight Number -
Tags Decoded
Created
Modified
Stats Distance 408 nm / 755 km
Max Altitude 0 ft / 0 m
Waypoints 2
Social Downloads 7
Likes 0
Share VATSIM

Download

Looking for another format? Having issues loading an existing format? Contact us
Advertisement - Login to hide

Notes

Decoded

Route

SBSP SBVT

ID Type Via Altitude Latitude Longitude Leg Dist Tot Dist Heading (true) Name
O SBSP APT - 0 ft / 0 m -23.62070˚ -46.65829˚ - 0 nm - -
O SBVT APT - 0 ft / 0 m -20.26234˚ -40.29332˚ 407 nm 407 nm 62° / 59° Goiabeiras

Altitude Profile

Advertisement - Login to hide

Weather


0- 5 10 15 20 25 30 35+ Temperature / ° C

Clouds and Precipitation
Forecast for 2017-12-18 00:00 UTC. Updated 2 hours ago

Ground ~20,000 ft ~40,000 ft Winds

SBSP

Details ICAO SBSP (CGH)
Name Sao Paulo Congonhas
Region Brazil
Timezone America/Sao_Paulo (UTC-2.0)
Stats Elevation 2,631 ft / 802 m (AMSL)
Location -23.626693° -46.655377°
Runways 2
Magnetic Variation 21.296° W

METAR

SBSP 180102Z 05012KT 020V100 9999 -TSRA FEW020 //////CB 21/16 Q1019 RETSRA

Decode

TAF

TAF SBSP 172119Z 1800/1824 35005KT CAVOK TN22/1809Z TX29/1817Z BECMG 1807/1809 33005KT BECMG 1812/1814 27010KT SCT040 PROB40 1815/1821 18010KT 8000 TSRA BKN010 FEW045CB BECMG 1821/1823 15008KT 8000 RA BKN009 RMK PGN

Decode

Departure Runways

ID Width Length Bearing (true) Bearing (mag) Surface Threshold Offset Overrun Length
17L 147 ft / 45 m 4,726 ft / 1,441 m 147.28° 168.58° Asphalt 0 ft / 0 m 220 ft / 67 m
17R 147 ft / 45 m 6,406 ft / 1,953 m 147.39° 168.69° Asphalt 413 ft / 126 m 0 ft / 0 m
35L 147 ft / 45 m 6,406 ft / 1,953 m 327.38° 348.68° Asphalt 200 ft / 61 m 0 ft / 0 m
35R 147 ft / 45 m 4,726 ft / 1,441 m 327.28° 348.58° Asphalt 0 ft / 0 m 0 ft / 0 m

SBVT

Details ICAO SBVT (VIX)
Name Goiabeiras
Region Brazil
Timezone America/Sao_Paulo (UTC-2.0)
Stats Elevation 11 ft / 3 m (AMSL)
Location -20.255611° -40.288893°
Runways 1
Magnetic Variation 23.797° W

METAR

SBVT 180100Z 34006KT 9999 FEW018 24/22 Q1018

Decode

TAF

TAF SBVT 172200Z 1800/1824 01009KT CAVOK TN24/1808Z TX30/1814Z BECMG 1802/1803 8000 SCT020 BECMG 1810/1812 02013KT BECMG 1814/1815 05016KT BECMG 1821/1822 03010KT RMK PEU

Decode

Destination Runways

ID Width Length Bearing (true) Bearing (mag) Surface Threshold Offset Overrun Length
05 148 ft / 45 m 5,769 ft / 1,759 m 31.71° 55.51° Asphalt 0 ft / 0 m 189 ft / 58 m
23 148 ft / 45 m 5,769 ft / 1,759 m 211.71° 235.51° Asphalt 0 ft / 0 m 189 ft / 58 m

Popular Alternatives